Time;durP1;ratioP1;P1;durP2;ratioP2;P2;SDS_P1;SDS_P2;PMS_P1;PMS_P2;Temp;Humidity;BMP_temperature;BMP_pressure;BME280_temperature;BME280_humidity;BME280_pressure;Samples;Min_cycle;Max_cycle;Signal;HPM_P1;HPM_P2
2022/11/27 00:01:40;;;;;;;95.00;45.22;;;4.50;99.90;;;;;;5087996;28;20547;-54
2022/11/27 00:04:07;;;;;;;99.13;49.13;;;4.40;99.90;;;;;;5087848;28;20051;-54
2022/11/27 00:06:33;;;;;;;;;;;4.40;99.90;;;;;;5089728;28;20468;-54
2022/11/27 00:09:01;;;;;;;97.65;44.33;;;4.30;99.90;;;;;;5088967;28;19991;-54
2022/11/27 00:11:29;;;;;;;100.20;46.15;;;4.40;99.90;;;;;;5088710;28;20028;-53
2022/11/27 00:13:55;;;;;;;101.32;47.40;;;4.40;99.90;;;;;;5089045;28;20028;-54
2022/11/27 00:16:22;;;;;;;92.90;45.55;;;4.40;99.90;;;;;;5089240;28;20031;-55
2022/11/27 00:18:48;;;;;;;101.18;44.88;;;4.40;99.90;;;;;;5092928;28;20484;-55
2022/11/27 00:21:16;;;;;;;101.47;46.55;;;4.40;99.90;;;;;;5092951;28;20024;-55
2022/11/27 00:23:42;;;;;;;109.18;47.10;;;4.50;99.90;;;;;;5092838;28;20020;-55
2022/11/27 00:26:09;;;;;;;97.28;47.17;;;4.50;99.90;;;;;;5074567;28;20028;-55
2022/11/27 00:28:35;;;;;;;95.93;44.67;;;4.50;99.90;;;;;;5092910;28;20020;-56
2022/11/27 00:31:07;;;;;;;92.28;43.85;;;4.50;99.90;;;;;;5092536;28;20382;-56
2022/11/27 00:33:33;;;;;;;92.55;42.30;;;4.50;99.90;;;;;;5092685;28;20020;-55
2022/11/27 00:36:06;;;;;;;89.93;42.95;;;4.40;99.90;;;;;;5092621;28;20385;-57
2022/11/27 00:38:33;;;;;;;98.82;43.03;;;4.50;99.90;;;;;;5092598;28;20024;-54
2022/11/27 00:41:08;;;;;;;89.55;40.08;;;4.40;99.90;;;;;;5092333;28;20120;-56
2022/11/27 00:43:35;;;;;;;88.18;42.22;;;4.40;99.90;;;;;;5074427;28;20035;-54
2022/11/27 00:46:01;;;;;;;92.53;40.08;;;4.40;99.90;;;;;;5092357;28;20089;-55
2022/11/27 00:48:27;;;;;;;89.10;42.17;;;4.50;99.90;;;;;;5092486;28;20024;-55
2022/11/27 00:50:59;;;;;;;89.72;41.53;;;4.50;99.90;;;;;;5092220;28;20043;-54
2022/11/27 00:53:24;;;;;;;90.47;42.50;;;4.50;99.90;;;;;;5092645;28;20058;-56
2022/11/27 00:55:50;;;;;;;89.13;41.35;;;4.50;99.90;;;;;;5092323;28;20051;-55
2022/11/27 00:58:15;;;;;;;92.68;40.38;;;4.50;99.90;;;;;;5092146;28;20035;-54
2022/11/27 01:00:41;;;;;;;84.80;40.20;;;4.50;99.90;;;;;;5092230;28;20027;-55
2022/11/27 01:03:07;;;;;;;90.00;39.85;;;4.50;99.90;;;;;;5092122;28;20565;-56
2022/11/27 01:05:36;;;;;;;95.38;43.28;;;4.50;99.90;;;;;;5092244;28;20058;-56
2022/11/27 01:08:02;;;;;;;93.35;41.47;;;4.50;99.90;;;;;;5092195;28;20013;-56
2022/11/27 01:10:27;;;;;;;84.25;40.92;;;4.50;99.90;;;;;;5092049;28;20134;-57
2022/11/27 01:12:53;;;;;;;81.80;37.63;;;4.50;99.90;;;;;;5092011;28;20016;-56
2022/11/27 01:15:18;;;;;;;83.40;38.67;;;4.60;99.90;;;;;;5085540;28;20464;-54
2022/11/27 01:17:44;;;;;;;86.90;39.42;;;4.50;99.90;;;;;;5060197;28;20118;-55
2022/11/27 01:20:10;;;;;;;78.28;39.13;;;4.50;99.90;;;;;;5092128;28;20093;-54
2022/11/27 01:22:36;;;;;;;87.13;38.47;;;4.50;99.90;;;;;;5091737;28;20028;-54
2022/11/27 01:25:01;;;;;;;83.07;39.95;;;4.50;99.90;;;;;;5073653;28;20579;-54
2022/11/27 01:27:27;;;;;;;87.45;41.35;;;4.50;99.90;;;;;;5091441;28;20028;-56
2022/11/27 01:29:53;;;;;;;95.28;42.08;;;4.60;99.90;;;;;;5091963;28;20024;-56
2022/11/27 01:32:18;;;;;;;86.97;39.65;;;4.50;99.90;;;;;;5091995;28;20024;-56
2022/11/27 01:34:44;;;;;;;88.47;39.88;;;4.50;99.90;;;;;;5091704;28;20031;-56
2022/11/27 01:37:09;;;;;;;102.22;44.10;;;4.50;99.90;;;;;;5091920;28;20467;-56
2022/11/27 01:39:35;;;;;;;92.18;41.05;;;4.40;99.90;;;;;;5091787;28;20550;-55
2022/11/27 01:42:01;;;;;;;92.78;43.22;;;4.50;99.90;;;;;;5091302;28;20048;-54
2022/11/27 01:44:26;;;;;;;104.25;45.20;;;4.50;99.90;;;;;;5091985;28;20030;-56
2022/11/27 01:47:05;;;;;;;109.45;47.33;;;4.50;99.90;;;;;;5091608;28;20026;-56
2022/11/27 01:49:34;;;;;;;106.93;45.78;;;4.40;99.90;;;;;;5073312;28;20036;-55
2022/11/27 01:52:19;;;;;;;113.15;49.03;;;4.50;99.90;;;;;;5091378;28;20530;-53
2022/11/27 01:55:04;;;;;;;142.30;60.60;;;4.50;99.90;;;;;;5091452;28;20752;-55
2022/11/27 01:57:42;;;;;;;137.50;60.88;;;4.50;99.90;;;;;;5073122;28;20047;-57
2022/11/27 02:00:12;;;;;;;134.38;58.22;;;4.40;99.90;;;;;;5091233;28;20034;-54
2022/11/27 02:02:40;;;;;;;124.70;56.13;;;4.50;99.90;;;;;;5091209;28;20035;-55
2022/11/27 02:05:06;;;;;;;116.30;54.25;;;4.50;99.90;;;;;;5091021;28;20032;-54
2022/11/27 02:07:32;;;;;;;113.88;51.92;;;4.50;99.90;;;;;;5091245;28;20036;-54
2022/11/27 02:09:57;;;;;;;112.35;50.85;;;4.50;99.90;;;;;;5091037;28;20402;-55
2022/11/27 02:12:30;;;;;;;102.25;49.17;;;4.50;99.90;;;;;;5076819;28;20047;-53
2022/11/27 02:15:17;;;;;;;106.82;48.72;;;4.50;99.90;;;;;;5069723;28;20566;-54
2022/11/27 02:18:01;;;;;;;124.85;53.10;;;4.60;99.90;;;;;;5070705;28;20032;-54
2022/11/27 02:20:33;;;;;;;133.55;56.47;;;4.50;99.90;;;;;;5070920;28;20031;-53
2022/11/27 02:23:19;;;;;;;136.73;56.80;;;4.50;99.90;;;;;;5070916;28;20029;-56
2022/11/27 02:26:10;;;;;;;125.85;55.75;;;4.50;99.90;;;;;;5070480;28;20518;-55
2022/11/27 02:28:55;;;;;;;114.70;53.38;;;4.50;99.90;;;;;;5070663;28;20035;-53
2022/11/27 02:31:31;;;;;;;117.60;51.65;;;4.60;99.90;;;;;;5070091;28;20395;-54
2022/11/27 02:34:20;;;;;;;108.60;53.28;;;4.60;99.90;;;;;;5070514;28;20031;-55
2022/11/27 02:36:53;;;;;;;116.88;53.72;;;4.50;99.90;;;;;;5070541;28;20101;-55
2022/11/27 02:39:29;;;;;;;116.25;55.25;;;4.60;99.90;;;;;;5068629;28;20375;-55
2022/11/27 02:42:04;;;;;;;111.70;52.72;;;4.60;99.90;;;;;;5070158;28;20051;-55
2022/11/27 02:44:32;;;;;;;107.50;49.25;;;4.60;99.90;;;;;;5070101;28;20752;-56
2022/11/27 02:46:59;;;;;;;112.22;51.20;;;4.60;99.90;;;;;;5068832;28;20111;-57
2022/11/27 02:49:25;;;;;;;93.20;48.10;;;4.60;99.90;;;;;;5069791;28;20028;-54
2022/11/27 02:51:56;;;;;;;98.60;47.60;;;4.50;99.90;;;;;;5070007;28;20042;-53
2022/11/27 02:54:27;;;;;;;98.85;48.75;;;4.60;99.90;;;;;;5069792;28;20025;-54
2022/11/27 02:56:54;;;;;;;94.18;47.38;;;4.60;99.90;;;;;;5070236;28;20112;-55
2022/11/27 02:59:22;;;;;;;96.93;45.80;;;4.60;99.90;;;;;;5052108;28;20425;-55
2022/11/27 03:01:52;;;;;;;96.38;46.78;;;4.60;99.90;;;;;;5070131;28;20039;-55
2022/11/27 03:04:24;;;;;;;90.28;43.28;;;4.60;99.90;;;;;;5070035;28;20020;-53
2022/11/27 03:06:54;;;;;;;88.70;42.40;;;4.60;99.90;;;;;;5070007;28;20056;-53
2022/11/27 03:09:35;;;;;;;87.63;41.33;;;4.60;99.90;;;;;;5070226;28;20028;-53
2022/11/27 03:12:04;;;;;;;90.07;41.33;;;4.60;99.90;;;;;;5080281;28;20036;-54
2022/11/27 03:14:30;;;;;;;92.90;43.72;;;4.60;99.90;;;;;;5071773;28;20510;-55
2022/11/27 03:17:10;;;;;;;91.55;43.47;;;4.70;99.90;;;;;;5089958;28;20032;-53
2022/11/27 03:19:49;;;;;;;95.90;42.75;;;4.60;99.90;;;;;;5090009;28;20036;-53
2022/11/27 03:22:15;;;;;;;87.55;41.47;;;4.60;99.90;;;;;;5090169;28;20421;-55
2022/11/27 03:24:41;;;;;;;90.85;41.38;;;4.60;99.90;;;;;;5090074;28;20039;-54
2022/11/27 03:27:09;;;;;;;94.60;44.85;;;4.60;99.90;;;;;;5090039;28;20031;-55
2022/11/27 03:29:47;;;;;;;83.97;40.03;;;4.50;99.90;;;;;;5089741;28;20529;-54
2022/11/27 03:32:14;;;;;;;92.38;44.10;;;4.60;99.90;;;;;;5089898;28;20111;-54
2022/11/27 03:34:40;;;;;;;96.70;43.97;;;4.60;99.90;;;;;;5090006;28;20107;-55
2022/11/27 03:37:06;;;;;;;101.53;45.35;;;4.60;99.90;;;;;;5089844;28;20036;-55
2022/11/27 03:39:33;;;;;;;90.63;42.85;;;4.50;99.90;;;;;;5089807;28;20016;-55
2022/11/27 03:42:01;;;;;;;88.78;44.03;;;4.50;99.90;;;;;;5089807;28;20052;-56
2022/11/27 03:44:48;;;;;;;88.65;44.40;;;4.50;99.90;;;;;;5089798;28;20097;-56
2022/11/27 03:47:38;;;;;;;95.25;44.28;;;4.50;99.90;;;;;;5089698;28;20606;-56
2022/11/27 03:50:43;;;;;;;91.97;44.60;;;4.40;99.90;;;;;;5089865;28;20035;-56
2022/11/27 03:53:17;;;;;;;92.50;43.95;;;4.50;99.90;;;;;;5092782;28;20020;-54
2022/11/27 03:56:12;;;;;;;92.63;43.30;;;4.50;99.90;;;;;;5093814;28;20024;-54
2022/11/27 03:58:43;;;;;;;100.57;42.63;;;4.50;99.90;;;;;;5093609;28;20483;-56
2022/11/27 04:01:13;;;;;;;89.85;40.65;;;4.50;99.90;;;;;;5093661;28;20024;-54
2022/11/27 04:03:40;;;;;;;87.82;40.35;;;4.40;99.90;;;;;;5093426;28;20089;-55
2022/11/27 04:06:06;;;;;;;97.53;40.72;;;4.40;99.90;;;;;;5093954;28;20024;-55
2022/11/27 04:08:31;;;;;;;82.57;39.70;;;4.40;99.90;;;;;;5093807;28;20024;-55
2022/11/27 04:10:57;;;;;;;90.35;41.17;;;4.40;99.90;;;;;;5091814;28;20475;-52
2022/11/27 04:13:22;;;;;;;80.72;38.20;;;4.30;99.90;;;;;;5073309;28;20016;-53
2022/11/27 04:15:48;;;;;;;84.85;39.58;;;4.30;99.90;;;;;;5073043;28;20029;-54
2022/11/27 04:18:14;;;;;;;87.70;40.38;;;4.30;99.90;;;;;;5073074;28;20021;-54
2022/11/27 04:20:41;;;;;;;79.95;37.95;;;4.30;99.90;;;;;;5073235;28;20112;-55
2022/11/27 04:23:07;;;;;;;80.35;37.55;;;4.30;99.90;;;;;;5072848;28;20866;-54
2022/11/27 04:25:32;;;;;;;71.55;34.95;;;4.30;99.90;;;;;;5072923;28;20059;-56
2022/11/27 04:27:58;;;;;;;85.93;37.63;;;4.20;99.90;;;;;;5072858;28;20090;-53
2022/11/27 04:30:23;;;;;;;83.90;35.60;;;4.20;99.90;;;;;;5071492;28;20033;-53
2022/11/27 04:32:49;;;;;;;72.68;36.72;;;4.20;99.90;;;;;;5072555;28;20029;-53
2022/11/27 04:35:15;;;;;;;78.82;35.53;;;4.20;99.90;;;;;;5072633;28;20021;-54
2022/11/27 04:37:40;;;;;;;72.97;33.45;;;4.20;99.90;;;;;;5072937;28;20021;-55
2022/11/27 04:40:07;;;;;;;68.63;34.78;;;4.20;99.90;;;;;;5072659;28;20047;-55
2022/11/27 04:42:32;;;;;;;60.17;31.20;;;4.10;99.90;;;;;;5072322;28;20075;-54
2022/11/27 04:44:58;;;;;;;69.97;32.70;;;4.10;99.90;;;;;;5072639;28;20480;-54
2022/11/27 04:47:24;;;;;;;66.22;32.03;;;4.10;99.90;;;;;;5072418;28;20033;-56
2022/11/27 04:49:49;;;;;;;67.93;32.25;;;4.10;99.90;;;;;;5072468;28;20032;-52
2022/11/27 04:52:15;;;;;;;69.60;32.60;;;4.20;99.90;;;;;;5072372;28;20036;-56
2022/11/27 04:54:40;;;;;;;66.75;34.00;;;4.10;99.90;;;;;;5072460;28;20380;-55
2022/11/27 04:57:06;;;;;;;76.72;36.72;;;4.20;99.90;;;;;;5072483;28;20032;-52
2022/11/27 04:59:32;;;;;;;77.03;38.20;;;4.20;99.90;;;;;;5072817;28;20104;-53
2022/11/27 05:01:58;;;;;;;78.18;39.90;;;4.20;99.90;;;;;;5071980;28;20115;-54
2022/11/27 05:04:24;;;;;;;71.55;36.85;;;4.20;99.90;;;;;;5071816;28;20082;-53
2022/11/27 05:06:49;;;;;;;79.03;36.72;;;4.30;99.90;;;;;;5072339;28;20029;-52
2022/11/27 05:09:18;;;;;;;76.63;37.33;;;4.20;99.90;;;;;;5072165;28;20027;-55
2022/11/27 05:11:44;;;;;;;79.40;38.97;;;4.20;99.90;;;;;;5079747;28;20047;-55
2022/11/27 05:14:16;;;;;;;72.07;37.15;;;4.20;99.90;;;;;;5092140;28;20024;-56
2022/11/27 05:16:53;;;;;;;81.75;37.58;;;4.10;99.90;;;;;;5092220;28;20078;-54
2022/11/27 05:19:21;;;;;;;68.15;34.70;;;4.00;99.90;;;;;;5092381;28;20047;-55
2022/11/27 05:21:47;;;;;;;77.95;37.15;;;4.10;99.90;;;;;;5092256;28;20035;-56
2022/11/27 05:24:14;;;;;;;66.70;35.50;;;4.10;99.90;;;;;;5092140;28;20056;-53
2022/11/27 05:26:41;;;;;;;74.78;35.88;;;4.00;99.90;;;;;;5092206;28;20056;-57
2022/11/27 05:29:08;;;;;;;73.72;34.88;;;4.00;99.90;;;;;;5091972;28;20149;-54
2022/11/27 05:31:34;;;;;;;74.45;37.53;;;4.00;99.90;;;;;;5091864;28;20032;-56
2022/11/27 05:34:00;;;;;;;81.50;36.30;;;4.00;99.90;;;;;;5091772;28;20462;-54
2022/11/27 05:36:26;;;;;;;73.25;36.28;;;4.00;99.90;;;;;;5091747;28;20365;-54
2022/11/27 05:38:51;;;;;;;80.50;33.78;;;4.10;99.90;;;;;;5073619;28;20024;-54
2022/11/27 05:41:17;;;;;;;75.57;36.72;;;4.00;99.90;;;;;;5069946;28;20044;-54
2022/11/27 05:43:43;;;;;;;72.38;38.75;;;4.00;99.90;;;;;;5071482;28;20048;-55
2022/11/27 05:46:11;;;;;;;79.68;40.08;;;4.00;99.90;;;;;;5071620;28;20077;-56
2022/11/27 05:48:37;;;;;;;80.63;40.58;;;4.10;99.90;;;;;;5071323;28;20100;-54
2022/11/27 05:51:03;;;;;;;81.32;40.63;;;4.00;99.90;;;;;;5071297;28;20123;-53
2022/11/27 05:53:29;;;;;;;78.30;40.33;;;4.10;99.90;;;;;;5057793;28;20052;-55
2022/11/27 05:56:10;;;;;;;90.30;40.22;;;4.00;99.90;;;;;;5051547;28;21009;-56
2022/11/27 05:58:37;;;;;;;85.10;42.05;;;4.10;99.90;;;;;;5051468;28;20547;-55
2022/11/27 06:01:03;;;;;;;85.18;42.67;;;4.10;99.90;;;;;;5051263;28;20033;-56
2022/11/27 06:03:29;;;;;;;76.23;39.47;;;4.20;99.90;;;;;;5050914;28;20108;-54
2022/11/27 06:05:55;;;;;;;79.75;42.08;;;4.10;99.90;;;;;;5051226;28;20619;-54
2022/11/27 06:08:20;;;;;;;85.95;41.55;;;4.20;99.90;;;;;;5051172;28;20485;-54
2022/11/27 06:10:47;;;;;;;91.75;44.13;;;4.20;99.90;;;;;;5050790;28;20040;-55
2022/11/27 06:13:13;;;;;;;90.88;43.63;;;4.20;99.90;;;;;;5069331;28;20423;-56
2022/11/27 06:15:39;;;;;;;81.65;43.85;;;4.20;99.90;;;;;;5070125;28;20036;-55
2022/11/27 06:18:06;;;;;;;82.10;41.78;;;4.20;99.90;;;;;;5070761;28;20123;-55
2022/11/27 06:20:31;;;;;;;83.28;43.03;;;4.20;99.90;;;;;;5070730;28;20037;-57
2022/11/27 06:22:57;;;;;;;87.10;43.00;;;4.10;99.90;;;;;;5070898;28;20086;-57
2022/11/27 06:25:24;;;;;;;87.15;43.28;;;4.10;99.90;;;;;;5070572;28;20028;-56
2022/11/27 06:27:50;;;;;;;83.03;40.28;;;4.10;99.90;;;;;;5070801;28;20055;-55
2022/11/27 06:30:16;;;;;;;77.72;40.13;;;4.10;99.90;;;;;;5070610;28;20040;-55
2022/11/27 06:32:41;;;;;;;78.03;38.95;;;4.10;99.90;;;;;;5070576;28;20043;-55
2022/11/27 06:35:07;;;;;;;83.13;39.25;;;4.10;99.90;;;;;;5070270;28;20380;-55
2022/11/27 06:37:33;;;;;;;85.82;39.72;;;4.10;99.90;;;;;;5070398;28;20107;-56
2022/11/27 06:39:59;;;;;;;83.05;39.72;;;4.00;99.90;;;;;;5069035;28;20477;-55
2022/11/27 06:42:27;;;;;;;75.57;40.75;;;4.00;99.90;;;;;;5087887;28;20823;-55
2022/11/27 06:44:52;;;;;;;81.90;37.90;;;4.00;99.90;;;;;;5072146;28;20024;-56
2022/11/27 06:47:18;;;;;;;76.07;39.20;;;4.00;99.90;;;;;;5090626;28;20020;-55
2022/11/27 06:49:43;;;;;;;77.28;39.55;;;4.00;99.90;;;;;;5090520;28;20021;-55
2022/11/27 06:52:09;;;;;;;73.78;37.13;;;4.00;99.90;;;;;;5090307;28;20032;-57
2022/11/27 06:54:35;;;;;;;83.20;39.03;;;4.00;99.90;;;;;;5090527;28;20043;-56
2022/11/27 06:57:00;;;;;;;75.88;40.08;;;4.00;99.90;;;;;;5090349;28;20427;-57
2022/11/27 06:59:26;;;;;;;78.82;41.45;;;4.00;99.90;;;;;;5090278;28;20028;-57
2022/11/27 07:01:52;;;;;;;82.85;42.80;;;4.00;99.90;;;;;;5090029;28;20122;-55
2022/11/27 07:04:17;;;;;;;80.88;43.70;;;4.10;99.90;;;;;;5089937;28;20025;-56
2022/11/27 07:06:43;;;;;;;87.13;45.35;;;4.10;99.90;;;;;;5090406;28;20017;-53
2022/11/27 07:09:09;;;;;;;94.93;46.22;;;4.00;99.90;;;;;;5090063;28;20024;-55
2022/11/27 07:11:35;;;;;;;89.15;44.80;;;4.00;99.90;;;;;;5085227;28;20040;-55
2022/11/27 07:14:03;;;;;;;116.90;54.75;;;4.00;99.90;;;;;;5070103;28;20059;-56
2022/11/27 07:16:33;;;;;;;100.10;51.53;;;4.00;99.90;;;;;;5069893;28;20047;-56
2022/11/27 07:19:09;;;;;;;105.85;53.60;;;4.00;99.90;;;;;;5069879;28;20020;-56
2022/11/27 07:21:36;;;;;;;112.35;53.65;;;4.00;99.90;;;;;;5069801;28;20136;-55
2022/11/27 07:24:01;;;;;;;;;;;4.00;99.90;;;;;;5070536;28;20036;-55
2022/11/27 07:26:29;;;;;;;117.30;54.80;;;4.00;99.90;;;;;;5068112;28;20387;-56
2022/11/27 07:28:55;;;;;;;119.88;58.47;;;4.00;99.90;;;;;;5069843;28;20017;-56
2022/11/27 07:31:23;;;;;;;121.15;57.38;;;4.10;99.90;;;;;;5069481;28;20090;-55
2022/11/27 07:33:51;;;;;;;131.68;61.35;;;4.00;99.90;;;;;;5069579;28;20025;-56
2022/11/27 07:36:24;;;;;;;112.13;55.13;;;4.00;99.90;;;;;;5069444;28;20052;-56
2022/11/27 07:38:50;;;;;;;109.63;53.65;;;4.00;99.90;;;;;;5069911;28;20579;-56
2022/11/27 07:41:17;;;;;;;123.63;58.60;;;4.00;99.90;;;;;;5069491;28;20514;-57
2022/11/27 07:43:44;;;;;;;119.50;56.00;;;4.00;99.90;;;;;;5069850;28;20047;-54
2022/11/27 07:46:15;;;;;;;112.25;56.97;;;4.00;99.90;;;;;;5069594;28;20028;-57
2022/11/27 07:48:41;;;;;;;110.88;55.08;;;4.10;99.90;;;;;;5069576;28;20036;-55
2022/11/27 07:51:08;;;;;;;121.95;60.28;;;4.10;99.90;;;;;;5067988;28;20039;-56
2022/11/27 07:53:35;;;;;;;;;;;4.10;99.90;;;;;;5079533;28;20032;-53
2022/11/27 07:56:00;;;;;;;102.32;52.90;;;4.20;99.90;;;;;;5089044;28;20316;-57
2022/11/27 07:58:26;;;;;;;99.50;52.20;;;4.20;99.90;;;;;;5088765;28;20055;-55
2022/11/27 08:00:51;;;;;;;100.30;53.40;;;4.20;99.90;;;;;;5088677;28;20475;-55
2022/11/27 08:03:17;;;;;;;95.97;47.75;;;4.20;99.90;;;;;;5087890;28;20051;-55
2022/11/27 08:05:43;;;;;;;91.90;47.15;;;4.20;99.90;;;;;;5088148;28;20034;-53
2022/11/27 08:08:08;;;;;;;85.95;44.17;;;4.10;99.90;;;;;;5069840;28;20077;-54
2022/11/27 08:10:35;;;;;;;74.70;41.58;;;4.20;99.90;;;;;;5088033;28;20094;-53
2022/11/27 08:13:01;;;;;;;75.45;39.25;;;4.20;99.90;;;;;;5069732;28;20319;-55
2022/11/27 08:15:26;;;;;;;80.45;42.58;;;4.20;99.90;;;;;;5087584;28;20498;-54
2022/11/27 08:17:52;;;;;;;84.68;46.63;;;4.20;99.90;;;;;;5069916;28;20521;-54
2022/11/27 08:20:18;;;;;;;89.68;48.08;;;4.20;99.90;;;;;;5088205;28;20024;-55
2022/11/27 08:22:44;;;;;;;90.25;48.83;;;4.30;99.90;;;;;;5088287;28;20039;-56
2022/11/27 08:25:10;;;;;;;83.97;46.35;;;4.30;99.90;;;;;;5067600;28;20106;-55
2022/11/27 08:27:36;;;;;;;83.93;49.92;;;4.30;99.90;;;;;;5088269;28;20115;-55
2022/11/27 08:30:03;;;;;;;83.25;46.90;;;4.30;99.90;;;;;;5088108;28;20080;-54
2022/11/27 08:32:28;;;;;;;81.50;46.03;;;4.30;99.90;;;;;;5087664;28;20437;-56
2022/11/27 08:34:54;;;;;;;87.60;47.55;;;4.30;99.90;;;;;;5087905;28;20025;-56
2022/11/27 08:37:20;;;;;;;84.20;45.58;;;4.40;99.90;;;;;;5088335;28;20471;-55
2022/11/27 08:39:46;;;;;;;80.28;45.63;;;4.40;99.90;;;;;;5091617;28;20032;-54
2022/11/27 08:42:12;;;;;;;82.80;46.40;;;4.40;99.90;;;;;;5092762;28;20055;-55
2022/11/27 08:44:37;;;;;;;87.40;48.28;;;4.30;99.90;;;;;;5092960;28;20027;-55
2022/11/27 08:47:03;;;;;;;92.00;54.15;;;4.40;99.90;;;;;;5092918;28;20518;-56
2022/11/27 08:49:29;;;;;;;97.90;53.00;;;4.50;99.90;;;;;;5092787;28;20084;-55
2022/11/27 08:51:54;;;;;;;96.53;55.00;;;4.50;99.90;;;;;;5092409;28;20036;-55
2022/11/27 08:54:20;;;;;;;111.32;61.30;;;4.50;99.90;;;;;;5074620;28;20506;-56
2022/11/27 08:56:46;;;;;;;127.15;71.55;;;4.50;99.90;;;;;;5092641;28;20115;-58
2022/11/27 08:59:11;;;;;;;128.98;73.50;;;4.50;99.90;;;;;;5091829;28;20493;-54
2022/11/27 09:01:37;;;;;;;119.53;65.75;;;4.50;99.90;;;;;;5092526;28;20024;-54
2022/11/27 09:04:03;;;;;;;117.88;67.95;;;4.50;99.90;;;;;;5091368;28;20020;-54
2022/11/27 09:06:32;;;;;;;123.60;66.53;;;4.60;99.90;;;;;;5089443;28;20514;-55
2022/11/27 09:09:04;;;;;;;129.13;72.95;;;4.60;99.90;;;;;;5090530;28;20024;-55
2022/11/27 09:11:31;;;;;;;127.97;74.60;;;4.70;99.90;;;;;;5090551;28;20101;-54
2022/11/27 09:14:01;;;;;;;124.65;69.10;;;4.60;99.90;;;;;;5092287;28;20036;-55
2022/11/27 09:16:28;;;;;;;121.07;72.03;;;4.60;99.90;;;;;;5092446;28;20035;-55
2022/11/27 09:18:56;;;;;;;134.68;77.00;;;4.60;99.90;;;;;;5092343;28;20035;-55
2022/11/27 09:21:23;;;;;;;144.45;82.82;;;4.60;99.90;;;;;;5092234;28;20024;-55
2022/11/27 09:23:53;;;;;;;;;;;4.60;99.90;;;;;;5090568;28;20472;-54
2022/11/27 09:26:18;;;;;;;117.15;67.28;;;4.60;99.90;;;;;;5090400;28;19904;-54
2022/11/27 09:28:44;;;;;;;117.05;61.85;;;4.70;99.90;;;;;;5090464;28;20063;-55
2022/11/27 09:31:13;;;;;;;108.55;63.22;;;4.60;99.90;;;;;;5090403;28;20028;-55
2022/11/27 09:33:40;;;;;;;105.97;63.85;;;4.60;99.90;;;;;;5090212;28;20020;-57
2022/11/27 09:36:08;;;;;;;112.45;61.75;;;4.70;99.90;;;;;;5091201;28;20050;-55
2022/11/27 09:38:34;;;;;;;86.50;50.45;;;4.70;99.90;;;;;;5091528;28;20066;-56
2022/11/27 09:41:20;;;;;;;94.28;54.25;;;4.70;99.90;;;;;;5091064;28;20044;-56
2022/11/27 09:43:55;;;;;;;98.80;57.63;;;4.70;99.90;;;;;;5087825;28;20048;-54
2022/11/27 09:46:34;;;;;;;99.53;58.20;;;4.80;99.90;;;;;;5089872;28;20039;-56
2022/11/27 09:49:04;;;;;;;105.25;60.92;;;4.80;99.90;;;;;;5089239;28;20028;-58
2022/11/27 09:52:18;;;;;;;94.85;56.50;;;4.90;99.90;;;;;;5088410;28;20059;-55
2022/11/27 09:54:56;;;;;;;100.15;58.15;;;4.90;99.90;;;;;;5080935;28;21294;-58
2022/11/27 09:57:35;;;;;;;83.63;49.80;;;5.00;99.90;;;;;;5089885;28;20042;-55
2022/11/27 10:00:21;;;;;;;92.25;52.92;;;4.90;99.90;;;;;;5088847;28;20028;-58
2022/11/27 10:02:47;;;;;;;90.70;53.20;;;5.00;99.90;;;;;;5089556;28;20031;-57
2022/11/27 10:05:19;;;;;;;75.28;46.58;;;5.10;99.90;;;;;;5089730;28;20024;-57
2022/11/27 10:08:17;;;;;;;78.13;45.30;;;5.10;99.90;;;;;;5087120;28;20023;-56
2022/11/27 10:10:57;;;;;;;76.85;46.25;;;5.00;99.90;;;;;;5044438;28;20128;-57
2022/11/27 10:13:44;;;;;;;77.95;46.10;;;5.00;99.90;;;;;;5089408;28;20031;-55
2022/11/27 10:16:25;;;;;;;81.63;50.55;;;5.10;99.90;;;;;;5088764;28;20024;-57
2022/11/27 10:18:57;;;;;;;79.65;49.97;;;5.10;99.90;;;;;;5088553;28;20419;-57
2022/11/27 10:21:48;;;;;;;75.30;47.65;;;5.30;99.90;;;;;;5088430;28;20403;-55
2022/11/27 10:24:45;;;;;;;65.63;41.67;;;5.20;99.90;;;;;;5088360;28;20404;-56
2022/11/27 10:27:23;;;;;;;66.13;41.58;;;5.10;99.90;;;;;;5086100;28;20253;-56
2022/11/27 10:29:53;;;;;;;64.18;42.75;;;5.20;99.90;;;;;;5088906;28;20024;-57
2022/11/27 10:32:31;;;;;;;68.55;40.63;;;5.20;99.90;;;;;;5087532;28;20127;-54
2022/11/27 10:35:12;;;;;;;56.20;35.85;;;5.30;99.90;;;;;;5088621;28;20012;-57
2022/11/27 10:37:54;;;;;;;61.35;36.20;;;5.30;99.90;;;;;;5086897;28;20386;-56
2022/11/27 10:40:45;;;;;;;55.05;33.95;;;5.40;99.90;;;;;;5088015;28;20024;-55
2022/11/27 10:43:19;;;;;;;52.53;34.03;;;5.40;99.90;;;;;;5089109;28;20035;-57
2022/11/27 10:46:09;;;;;;;56.22;34.00;;;5.40;99.90;;;;;;5088049;28;20086;-55
2022/11/27 10:48:34;;;;;;;50.40;31.98;;;5.30;99.90;;;;;;5088659;28;20027;-55
2022/11/27 10:51:00;;;;;;;64.72;35.92;;;5.30;99.90;;;;;;5088632;28;20039;-55
2022/11/27 10:53:28;;;;;;;61.08;38.40;;;5.30;99.90;;;;;;5087731;28;20032;-54
2022/11/27 10:56:00;;;;;;;56.67;36.28;;;5.30;99.90;;;;;;5089165;28;20024;-53
2022/11/27 10:58:54;;;;;;;54.33;31.52;;;5.40;99.90;;;;;;5086569;28;20028;-55
2022/11/27 11:01:21;;;;;;;56.88;31.70;;;5.40;99.90;;;;;;5087749;28;20028;-54
2022/11/27 11:03:47;;;;;;;46.30;29.58;;;5.40;99.90;;;;;;5088641;28;20031;-55
2022/11/27 11:06:21;;;;;;;50.30;31.08;;;5.50;99.90;;;;;;5088771;28;20035;-54
2022/11/27 11:08:47;;;;;;;52.80;32.20;;;5.50;99.90;;;;;;5087650;28;20040;-53
2022/11/27 11:11:12;;;;;;;54.22;31.25;;;5.40;99.90;;;;;;5088778;28;20365;-56
2022/11/27 11:13:45;;;;;;;44.22;26.92;;;5.40;99.90;;;;;;5088561;28;20028;-53
2022/11/27 11:16:21;;;;;;;42.67;25.17;;;5.50;99.90;;;;;;5070580;28;20711;-54
2022/11/27 11:18:52;;;;;;;40.72;24.60;;;5.50;99.90;;;;;;5087343;28;20027;-54
2022/11/27 11:21:28;;;;;;;39.80;22.77;;;5.50;99.90;;;;;;5087088;28;20067;-55
2022/11/27 11:24:11;;;;;;;43.38;24.98;;;5.50;99.90;;;;;;5087698;28;20016;-55
2022/11/27 11:26:58;;;;;;;42.05;23.92;;;5.50;99.90;;;;;;5087122;28;20048;-57
2022/11/27 11:29:34;;;;;;;45.90;24.80;;;5.40;99.90;;;;;;5086553;28;20024;-56
2022/11/27 11:32:29;;;;;;;45.08;26.88;;;5.50;99.90;;;;;;5087141;28;20103;-55
2022/11/27 11:35:23;;;;;;;40.70;25.90;;;5.60;99.90;;;;;;5076031;28;20032;-56
2022/11/27 11:37:49;;;;;;;41.35;26.60;;;5.60;99.90;;;;;;5086718;28;20036;-54
2022/11/27 11:40:18;;;;;;;46.93;28.37;;;5.60;99.90;;;;;;5086864;28;20456;-54
2022/11/27 11:42:57;;;;;;;43.63;26.33;;;5.70;99.90;;;;;;5087956;28;20075;-56
2022/11/27 11:45:24;;;;;;;42.15;25.40;;;5.70;99.90;;;;;;5085495;28;20012;-56
2022/11/27 11:47:54;;;;;;;38.33;22.60;;;5.90;99.90;;;;;;5089577;28;20467;-55
2022/11/27 11:50:33;;;;;;;44.38;24.00;;;5.80;99.90;;;;;;5088679;28;20623;-56
2022/11/27 11:53:17;;;;;;;39.95;23.67;;;5.80;99.90;;;;;;5069312;28;20055;-56
2022/11/27 11:56:06;;;;;;;38.30;24.05;;;5.90;99.90;;;;;;5087967;28;20031;-55
2022/11/27 11:59:09;;;;;;;37.55;21.10;;;5.90;99.90;;;;;;5086728;28;20023;-55
2022/11/27 12:02:01;;;;;;;33.70;19.88;;;5.90;99.90;;;;;;5088205;28;20024;-54
2022/11/27 12:04:48;;;;;;;31.50;18.48;;;5.80;99.90;;;;;;5077476;28;20108;-55
2022/11/27 12:07:47;;;;;;;31.42;19.35;;;5.80;99.90;;;;;;5068737;28;20039;-56
2022/11/27 12:10:37;;;;;;;32.05;18.52;;;5.90;99.90;;;;;;5086381;28;20024;-55
2022/11/27 12:13:22;;;;;;;25.98;16.88;;;5.90;99.90;;;;;;5088333;28;20487;-54
2022/11/27 12:16:08;;;;;;;33.83;19.30;;;5.90;99.90;;;;;;5072867;28;20383;-54
2022/11/27 12:19:15;;;;;;;33.05;19.58;;;5.90;99.90;;;;;;5091310;28;20024;-55
2022/11/27 12:21:58;;;;;;;31.55;17.35;;;5.90;99.90;;;;;;5069774;28;20066;-55
2022/11/27 12:24:30;;;;;;;30.83;16.55;;;5.90;99.90;;;;;;5091030;28;20437;-55
2022/11/27 12:27:27;;;;;;;24.45;15.50;;;5.80;99.90;;;;;;5090793;28;20103;-54
2022/11/27 12:30:09;;;;;;;32.20;19.40;;;5.70;99.90;;;;;;5090160;28;20024;-57
2022/11/27 12:32:46;;;;;;;33.20;18.17;;;5.70;99.90;;;;;;5090715;28;20032;-55
2022/11/27 12:35:31;;;;;;;28.00;16.08;;;5.60;99.90;;;;;;5089752;28;20027;-56
2022/11/27 12:37:57;;;;;;;28.67;15.85;;;5.60;99.90;;;;;;5090980;28;20061;-55
2022/11/27 12:40:28;;;;;;;30.48;18.17;;;5.70;99.90;;;;;;5091843;28;20020;-58
2022/11/27 12:43:16;;;;;;;30.30;17.25;;;5.80;99.90;;;;;;5074550;28;20092;-56
2022/11/27 12:45:58;;;;;;;34.05;20.75;;;5.80;99.90;;;;;;5093139;28;20032;-55
2022/11/27 12:48:33;;;;;;;48.60;28.15;;;6.00;99.90;;;;;;5093216;28;20039;-56
2022/11/27 12:51:16;;;;;;;48.50;28.83;;;6.10;99.90;;;;;;5093102;28;20043;-55
2022/11/27 12:53:46;;;;;;;43.42;28.85;;;6.30;99.90;;;;;;5092946;28;20539;-54
2022/11/27 12:56:20;;;;;;;38.40;26.00;;;6.60;99.90;;;;;;5092912;28;20081;-55